sensor_id;sensor_type;location;lat;lon;timestamp;temperature;humidity
16229;DHT22;8222;51.462;12.630;2023-05-10T00:01:07;12.90;99.90
16229;DHT22;8222;51.462;12.630;2023-05-10T00:03:33;12.90;99.90
16229;DHT22;8222;51.462;12.630;2023-05-10T00:06:04;12.80;99.90
16229;DHT22;8222;51.462;12.630;2023-05-10T00:08:29;12.80;99.90
16229;DHT22;8222;51.462;12.630;2023-05-10T00:10:55;12.70;99.90
16229;DHT22;8222;51.462;12.630;2023-05-10T00:13:21;12.60;99.90
16229;DHT22;8222;51.462;12.630;2023-05-10T00:15:47;12.50;99.90
16229;DHT22;8222;51.462;12.630;2023-05-10T00:18:16;12.50;99.90
16229;DHT22;8222;51.462;12.630;2023-05-10T00:20:41;12.60;99.90
16229;DHT22;8222;51.462;12.630;2023-05-10T00:23:07;12.30;99.90
16229;DHT22;8222;51.462;12.630;2023-05-10T00:25:35;12.60;99.90
16229;DHT22;8222;51.462;12.630;2023-05-10T00:28:05;12.50;99.90
16229;DHT22;8222;51.462;12.630;2023-05-10T00:30:33;12.50;99.90
16229;DHT22;8222;51.462;12.630;2023-05-10T00:32:59;12.60;99.90
16229;DHT22;8222;51.462;12.630;2023-05-10T00:35:24;12.40;99.90
16229;DHT22;8222;51.462;12.630;2023-05-10T00:37:53;12.40;99.90
16229;DHT22;8222;51.462;12.630;2023-05-10T00:40:24;12.40;99.90
16229;DHT22;8222;51.462;12.630;2023-05-10T00:42:55;12.40;99.90
16229;DHT22;8222;51.462;12.630;2023-05-10T00:45:25;12.40;99.90
16229;DHT22;8222;51.462;12.630;2023-05-10T00:47:53;12.40;99.90
16229;DHT22;8222;51.462;12.630;2023-05-10T00:50:23;12.50;99.90
16229;DHT22;8222;51.462;12.630;2023-05-10T00:52:52;12.40;99.90
16229;DHT22;8222;51.462;12.630;2023-05-10T00:55:20;12.40;99.90
16229;DHT22;8222;51.462;12.630;2023-05-10T00:57:47;12.40;99.90
16229;DHT22;8222;51.462;12.630;2023-05-10T01:00:16;12.40;99.90
16229;DHT22;8222;51.462;12.630;2023-05-10T01:02:45;12.60;99.90
16229;DHT22;8222;51.462;12.630;2023-05-10T01:05:13;12.50;99.90
16229;DHT22;8222;51.462;12.630;2023-05-10T01:07:39;12.40;99.90
16229;DHT22;8222;51.462;12.630;2023-05-10T01:10:06;12.30;99.90
16229;DHT22;8222;51.462;12.630;2023-05-10T01:12:35;12.40;99.90
16229;DHT22;8222;51.462;12.630;2023-05-10T01:15:06;12.50;99.90
16229;DHT22;8222;51.462;12.630;2023-05-10T01:17:32;12.40;99.90
16229;DHT22;8222;51.462;12.630;2023-05-10T01:19:58;12.50;99.90
16229;DHT22;8222;51.462;12.630;2023-05-10T01:31:03;12.60;99.90
16229;DHT22;8222;51.462;12.630;2023-05-10T01:34:05;12.60;99.90
16229;DHT22;8222;51.462;12.630;2023-05-10T01:39:25;12.70;99.90
16229;DHT22;8222;51.462;12.630;2023-05-10T01:42:05;12.60;99.90
16229;DHT22;8222;51.462;12.630;2023-05-10T01:47:44;12.60;99.90
16229;DHT22;8222;51.462;12.630;2023-05-10T01:50:27;12.40;99.90
16229;DHT22;8222;51.462;12.630;2023-05-10T01:52:59;12.30;99.90
16229;DHT22;8222;51.462;12.630;2023-05-10T01:55:28;12.20;99.90
16229;DHT22;8222;51.462;12.630;2023-05-10T01:58:05;12.20;99.90
16229;DHT22;8222;51.462;12.630;2023-05-10T02:00:34;12.10;99.90
16229;DHT22;8222;51.462;12.630;2023-05-10T02:03:04;12.10;99.90
16229;DHT22;8222;51.462;12.630;2023-05-10T02:05:32;12.10;99.90
16229;DHT22;8222;51.462;12.630;2023-05-10T02:08:01;12.20;99.90
16229;DHT22;8222;51.462;12.630;2023-05-10T02:10:29;12.20;99.90
16229;DHT22;8222;51.462;12.630;2023-05-10T02:12:58;12.20;99.90
16229;DHT22;8222;51.462;12.630;2023-05-10T02:15:25;12.10;99.90
16229;DHT22;8222;51.462;12.630;2023-05-10T02:17:55;12.10;99.90
16229;DHT22;8222;51.462;12.630;2023-05-10T02:20:23;12.20;99.90
16229;DHT22;8222;51.462;12.630;2023-05-10T02:22:52;12.20;99.90
16229;DHT22;8222;51.462;12.630;2023-05-10T02:25:20;12.10;99.90
16229;DHT22;8222;51.462;12.630;2023-05-10T02:27:49;12.10;99.90
16229;DHT22;8222;51.462;12.630;2023-05-10T02:30:19;12.00;99.90
16229;DHT22;8222;51.462;12.630;2023-05-10T02:32:47;11.90;99.90
16229;DHT22;8222;51.462;12.630;2023-05-10T02:35:17;11.80;99.90
16229;DHT22;8222;51.462;12.630;2023-05-10T02:37:44;11.80;99.90
16229;DHT22;8222;51.462;12.630;2023-05-10T02:40:13;11.90;99.90
16229;DHT22;8222;51.462;12.630;2023-05-10T02:42:43;11.90;99.90
16229;DHT22;8222;51.462;12.630;2023-05-10T02:45:18;11.90;99.90
16229;DHT22;8222;51.462;12.630;2023-05-10T02:47:45;11.90;99.90
16229;DHT22;8222;51.462;12.630;2023-05-10T02:50:10;11.90;99.90
16229;DHT22;8222;51.462;12.630;2023-05-10T02:52:44;11.90;99.90
16229;DHT22;8222;51.462;12.630;2023-05-10T02:55:12;11.90;99.90
16229;DHT22;8222;51.462;12.630;2023-05-10T03:00:26;11.90;99.90
16229;DHT22;8222;51.462;12.630;2023-05-10T03:02:53;11.90;99.90
16229;DHT22;8222;51.462;12.630;2023-05-10T03:05:19;12.00;99.90
16229;DHT22;8222;51.462;12.630;2023-05-10T03:07:47;11.90;99.90
16229;DHT22;8222;51.462;12.630;2023-05-10T03:10:13;11.90;99.90
16229;DHT22;8222;51.462;12.630;2023-05-10T03:12:52;11.90;99.90
16229;DHT22;8222;51.462;12.630;2023-05-10T03:18:09;11.80;99.90
16229;DHT22;8222;51.462;12.630;2023-05-10T03:20:47;11.80;99.90
16229;DHT22;8222;51.462;12.630;2023-05-10T03:25:48;12.00;99.90
16229;DHT22;8222;51.462;12.630;2023-05-10T03:28:16;11.90;99.90
16229;DHT22;8222;51.462;12.630;2023-05-10T03:30:43;11.80;99.90
16229;DHT22;8222;51.462;12.630;2023-05-10T03:33:10;11.80;99.90
16229;DHT22;8222;51.462;12.630;2023-05-10T03:35:36;11.80;99.90
16229;DHT22;8222;51.462;12.630;2023-05-10T03:38:02;11.80;99.90
16229;DHT22;8222;51.462;12.630;2023-05-10T03:40:28;11.80;99.90
16229;DHT22;8222;51.462;12.630;2023-05-10T03:42:59;11.80;99.90
16229;DHT22;8222;51.462;12.630;2023-05-10T03:45:24;11.70;99.90
16229;DHT22;8222;51.462;12.630;2023-05-10T03:47:53;11.60;99.90
16229;DHT22;8222;51.462;12.630;2023-05-10T03:50:21;11.60;99.90
16229;DHT22;8222;51.462;12.630;2023-05-10T03:52:47;11.70;99.90
16229;DHT22;8222;51.462;12.630;2023-05-10T03:55:13;11.70;99.90
16229;DHT22;8222;51.462;12.630;2023-05-10T03:57:39;11.80;99.90
16229;DHT22;8222;51.462;12.630;2023-05-10T04:00:05;11.70;99.90
16229;DHT22;8222;51.462;12.630;2023-05-10T04:02:33;11.60;99.90
16229;DHT22;8222;51.462;12.630;2023-05-10T04:04:59;11.60;99.90
16229;DHT22;8222;51.462;12.630;2023-05-10T04:07:24;11.50;99.90
16229;DHT22;8222;51.462;12.630;2023-05-10T04:09:50;11.50;99.90
16229;DHT22;8222;51.462;12.630;2023-05-10T04:12:16;11.60;99.90
16229;DHT22;8222;51.462;12.630;2023-05-10T04:14:42;11.70;99.90
16229;DHT22;8222;51.462;12.630;2023-05-10T04:17:07;11.70;99.90
16229;DHT22;8222;51.462;12.630;2023-05-10T04:19:33;11.90;99.90
16229;DHT22;8222;51.462;12.630;2023-05-10T04:22:02;12.10;99.90
16229;DHT22;8222;51.462;12.630;2023-05-10T04:24:30;12.00;99.90
16229;DHT22;8222;51.462;12.630;2023-05-10T04:26:58;12.00;99.90
16229;DHT22;8222;51.462;12.630;2023-05-10T04:29:23;12.00;99.90
16229;DHT22;8222;51.462;12.630;2023-05-10T04:31:49;12.00;99.90
16229;DHT22;8222;51.462;12.630;2023-05-10T04:34:16;12.00;99.90
16229;DHT22;8222;51.462;12.630;2023-05-10T04:36:44;12.20;99.90
16229;DHT22;8222;51.462;12.630;2023-05-10T04:39:12;12.20;99.90
16229;DHT22;8222;51.462;12.630;2023-05-10T04:41:39;12.20;99.90
16229;DHT22;8222;51.462;12.630;2023-05-10T04:44:05;12.30;99.90
16229;DHT22;8222;51.462;12.630;2023-05-10T04:46:30;12.30;99.90
16229;DHT22;8222;51.462;12.630;2023-05-10T04:48:56;12.40;99.90
16229;DHT22;8222;51.462;12.630;2023-05-10T04:51:24;12.50;99.90
16229;DHT22;8222;51.462;12.630;2023-05-10T04:53:53;12.60;99.90
16229;DHT22;8222;51.462;12.630;2023-05-10T04:56:19;12.80;99.90
16229;DHT22;8222;51.462;12.630;2023-05-10T04:58:44;12.80;99.90
16229;DHT22;8222;51.462;12.630;2023-05-10T05:01:11;12.80;99.90
16229;DHT22;8222;51.462;12.630;2023-05-10T05:03:39;12.90;99.90
16229;DHT22;8222;51.462;12.630;2023-05-10T05:06:05;13.00;99.90
16229;DHT22;8222;51.462;12.630;2023-05-10T05:08:31;13.20;99.90
16229;DHT22;8222;51.462;12.630;2023-05-10T05:10:57;13.50;99.90
16229;DHT22;8222;51.462;12.630;2023-05-10T05:13:22;13.60;99.90
16229;DHT22;8222;51.462;12.630;2023-05-10T05:15:48;13.80;99.90
16229;DHT22;8222;51.462;12.630;2023-05-10T05:18:14;13.70;99.90
16229;DHT22;8222;51.462;12.630;2023-05-10T05:20:39;13.80;99.90
16229;DHT22;8222;51.462;12.630;2023-05-10T05:23:05;13.80;99.90
16229;DHT22;8222;51.462;12.630;2023-05-10T05:25:31;14.00;99.90
16229;DHT22;8222;51.462;12.630;2023-05-10T05:28:01;14.00;99.90
16229;DHT22;8222;51.462;12.630;2023-05-10T05:30:29;14.00;99.90
16229;DHT22;8222;51.462;12.630;2023-05-10T05:32:57;14.10;99.90
16229;DHT22;8222;51.462;12.630;2023-05-10T05:35:23;14.10;99.90
16229;DHT22;8222;51.462;12.630;2023-05-10T05:37:49;14.10;99.90
16229;DHT22;8222;51.462;12.630;2023-05-10T05:40:15;14.10;99.90
16229;DHT22;8222;51.462;12.630;2023-05-10T05:42:41;14.40;99.90
16229;DHT22;8222;51.462;12.630;2023-05-10T05:45:07;14.70;99.90
16229;DHT22;8222;51.462;12.630;2023-05-10T05:47:36;14.80;99.90
16229;DHT22;8222;51.462;12.630;2023-05-10T05:50:02;15.00;99.90
16229;DHT22;8222;51.462;12.630;2023-05-10T05:52:28;15.10;99.90
16229;DHT22;8222;51.462;12.630;2023-05-10T05:54:54;15.10;99.90
16229;DHT22;8222;51.462;12.630;2023-05-10T05:57:24;15.10;99.90
16229;DHT22;8222;51.462;12.630;2023-05-10T05:59:49;15.10;99.90
16229;DHT22;8222;51.462;12.630;2023-05-10T06:02:17;15.20;99.90
16229;DHT22;8222;51.462;12.630;2023-05-10T06:04:43;15.40;99.90
16229;DHT22;8222;51.462;12.630;2023-05-10T06:07:11;15.60;99.90
16229;DHT22;8222;51.462;12.630;2023-05-10T06:09:39;15.70;99.90
16229;DHT22;8222;51.462;12.630;2023-05-10T06:12:07;15.90;99.90
16229;DHT22;8222;51.462;12.630;2023-05-10T06:14:33;16.10;99.90
16229;DHT22;8222;51.462;12.630;2023-05-10T06:16:58;16.20;99.90
16229;DHT22;8222;51.462;12.630;2023-05-10T06:19:25;16.30;99.90
16229;DHT22;8222;51.462;12.630;2023-05-10T06:21:51;16.50;99.90
16229;DHT22;8222;51.462;12.630;2023-05-10T06:24:17;16.70;99.90
16229;DHT22;8222;51.462;12.630;2023-05-10T06:26:43;16.80;99.90
16229;DHT22;8222;51.462;12.630;2023-05-10T06:29:08;16.80;99.90
16229;DHT22;8222;51.462;12.630;2023-05-10T06:31:37;16.80;99.90
16229;DHT22;8222;51.462;12.630;2023-05-10T06:34:03;17.10;99.90
16229;DHT22;8222;51.462;12.630;2023-05-10T06:36:31;17.30;99.90
16229;DHT22;8222;51.462;12.630;2023-05-10T06:38:57;17.30;99.90
16229;DHT22;8222;51.462;12.630;2023-05-10T06:41:25;17.50;99.90
16229;DHT22;8222;51.462;12.630;2023-05-10T06:43:50;17.30;99.90
16229;DHT22;8222;51.462;12.630;2023-05-10T06:46:16;17.40;99.90
16229;DHT22;8222;51.462;12.630;2023-05-10T06:48:42;17.60;99.90
16229;DHT22;8222;51.462;12.630;2023-05-10T06:51:08;17.70;99.90
16229;DHT22;8222;51.462;12.630;2023-05-10T06:53:33;17.90;99.90
16229;DHT22;8222;51.462;12.630;2023-05-10T06:56:01;18.00;99.90
16229;DHT22;8222;51.462;12.630;2023-05-10T06:58:31;18.30;99.90
16229;DHT22;8222;51.462;12.630;2023-05-10T07:01:05;18.60;99.90
16229;DHT22;8222;51.462;12.630;2023-05-10T07:03:31;18.80;99.90
16229;DHT22;8222;51.462;12.630;2023-05-10T07:06:01;18.80;99.90
16229;DHT22;8222;51.462;12.630;2023-05-10T07:08:29;19.10;99.90
16229;DHT22;8222;51.462;12.630;2023-05-10T07:11:05;19.30;99.90
16229;DHT22;8222;51.462;12.630;2023-05-10T07:13:32;19.10;99.90
16229;DHT22;8222;51.462;12.630;2023-05-10T07:16:01;19.60;99.90
16229;DHT22;8222;51.462;12.630;2023-05-10T07:18:27;19.70;99.90
16229;DHT22;8222;51.462;12.630;2023-05-10T07:20:53;20.00;99.90
16229;DHT22;8222;51.462;12.630;2023-05-10T07:23:19;20.20;99.90
16229;DHT22;8222;51.462;12.630;2023-05-10T07:25:48;20.20;99.90
16229;DHT22;8222;51.462;12.630;2023-05-10T07:28:15;20.10;99.90
16229;DHT22;8222;51.462;12.630;2023-05-10T07:30:42;20.00;99.90
16229;DHT22;8222;51.462;12.630;2023-05-10T07:33:12;20.20;99.90
16229;DHT22;8222;51.462;12.630;2023-05-10T07:35:38;20.10;99.90
16229;DHT22;8222;51.462;12.630;2023-05-10T07:38:04;20.00;99.90
16229;DHT22;8222;51.462;12.630;2023-05-10T07:40:33;19.90;99.90
16229;DHT22;8222;51.462;12.630;2023-05-10T07:42:58;20.20;99.90
16229;DHT22;8222;51.462;12.630;2023-05-10T07:45:27;20.10;99.90
16229;DHT22;8222;51.462;12.630;2023-05-10T07:47:52;20.40;99.90
16229;DHT22;8222;51.462;12.630;2023-05-10T07:50:18;20.60;99.90
16229;DHT22;8222;51.462;12.630;2023-05-10T07:52:44;20.60;99.90
16229;DHT22;8222;51.462;12.630;2023-05-10T07:55:10;20.70;99.90
16229;DHT22;8222;51.462;12.630;2023-05-10T07:57:38;20.70;99.90
16229;DHT22;8222;51.462;12.630;2023-05-10T08:00:05;20.70;99.90
16229;DHT22;8222;51.462;12.630;2023-05-10T08:02:30;20.60;99.90
16229;DHT22;8222;51.462;12.630;2023-05-10T08:04:56;20.50;99.90
16229;DHT22;8222;51.462;12.630;2023-05-10T08:07:24;20.50;99.90
16229;DHT22;8222;51.462;12.630;2023-05-10T08:09:49;20.60;99.90
16229;DHT22;8222;51.462;12.630;2023-05-10T08:12:15;20.60;99.90
16229;DHT22;8222;51.462;12.630;2023-05-10T08:14:41;20.70;99.90
16229;DHT22;8222;51.462;12.630;2023-05-10T08:17:07;20.80;99.90
16229;DHT22;8222;51.462;12.630;2023-05-10T08:19:32;20.80;99.90
16229;DHT22;8222;51.462;12.630;2023-05-10T08:21:58;20.90;99.90
16229;DHT22;8222;51.462;12.630;2023-05-10T08:24:23;21.10;99.90
16229;DHT22;8222;51.462;12.630;2023-05-10T08:26:51;21.20;99.90
16229;DHT22;8222;51.462;12.630;2023-05-10T08:29:17;21.40;99.90
16229;DHT22;8222;51.462;12.630;2023-05-10T08:31:46;21.40;99.90
16229;DHT22;8222;51.462;12.630;2023-05-10T08:34:11;21.40;99.90
16229;DHT22;8222;51.462;12.630;2023-05-10T08:36:39;21.70;99.90
16229;DHT22;8222;51.462;12.630;2023-05-10T08:39:05;21.70;99.90
16229;DHT22;8222;51.462;12.630;2023-05-10T08:41:32;21.60;99.90
16229;DHT22;8222;51.462;12.630;2023-05-10T08:43:59;21.60;99.90
16229;DHT22;8222;51.462;12.630;2023-05-10T08:46:29;21.70;99.90
16229;DHT22;8222;51.462;12.630;2023-05-10T08:49:00;22.00;99.90
16229;DHT22;8222;51.462;12.630;2023-05-10T08:51:29;22.10;99.90
16229;DHT22;8222;51.462;12.630;2023-05-10T08:53:59;22.40;99.90
16229;DHT22;8222;51.462;12.630;2023-05-10T08:56:28;22.40;99.90
16229;DHT22;8222;51.462;12.630;2023-05-10T08:58:54;22.50;99.90
16229;DHT22;8222;51.462;12.630;2023-05-10T09:01:21;22.90;99.90
16229;DHT22;8222;51.462;12.630;2023-05-10T09:03:47;22.70;99.90
16229;DHT22;8222;51.462;12.630;2023-05-10T09:06:13;22.50;99.90
16229;DHT22;8222;51.462;12.630;2023-05-10T09:08:41;22.30;99.90
16229;DHT22;8222;51.462;12.630;2023-05-10T09:11:13;22.10;99.90
16229;DHT22;8222;51.462;12.630;2023-05-10T09:13:41;22.10;99.90
16229;DHT22;8222;51.462;12.630;2023-05-10T09:16:07;22.10;99.90
16229;DHT22;8222;51.462;12.630;2023-05-10T09:18:33;22.10;99.90
16229;DHT22;8222;51.462;12.630;2023-05-10T09:20:59;22.00;99.90
16229;DHT22;8222;51.462;12.630;2023-05-10T09:23:24;21.90;99.90
16229;DHT22;8222;51.462;12.630;2023-05-10T09:26:04;21.90;99.90
16229;DHT22;8222;51.462;12.630;2023-05-10T09:28:52;21.90;99.90
16229;DHT22;8222;51.462;12.630;2023-05-10T09:31:21;21.90;99.90
16229;DHT22;8222;51.462;12.630;2023-05-10T09:33:48;22.00;99.90
16229;DHT22;8222;51.462;12.630;2023-05-10T09:36:15;22.20;99.90
16229;DHT22;8222;51.462;12.630;2023-05-10T09:41:21;22.50;99.90
16229;DHT22;8222;51.462;12.630;2023-05-10T09:43:49;22.50;99.90
16229;DHT22;8222;51.462;12.630;2023-05-10T09:46:16;22.60;99.90
16229;DHT22;8222;51.462;12.630;2023-05-10T09:48:47;22.80;99.90
16229;DHT22;8222;51.462;12.630;2023-05-10T09:51:22;22.80;99.90
16229;DHT22;8222;51.462;12.630;2023-05-10T09:56:36;22.40;99.90
16229;DHT22;8222;51.462;12.630;2023-05-10T09:59:09;22.40;99.90
16229;DHT22;8222;51.462;12.630;2023-05-10T10:01:35;22.20;99.90
16229;DHT22;8222;51.462;12.630;2023-05-10T10:04:05;22.10;99.90
16229;DHT22;8222;51.462;12.630;2023-05-10T10:06:38;21.90;99.90
16229;DHT22;8222;51.462;12.630;2023-05-10T10:09:05;21.60;99.90
16229;DHT22;8222;51.462;12.630;2023-05-10T10:11:34;21.50;99.90
16229;DHT22;8222;51.462;12.630;2023-05-10T10:14:00;21.30;99.90
16229;DHT22;8222;51.462;12.630;2023-05-10T10:16:30;21.30;99.90
16229;DHT22;8222;51.462;12.630;2023-05-10T10:18:57;21.20;99.90
16229;DHT22;8222;51.462;12.630;2023-05-10T10:21:23;21.10;99.90
16229;DHT22;8222;51.462;12.630;2023-05-10T10:23:49;20.90;99.90
16229;DHT22;8222;51.462;12.630;2023-05-10T10:26:21;20.80;99.90
16229;DHT22;8222;51.462;12.630;2023-05-10T10:34:50;20.60;99.90
16229;DHT22;8222;51.462;12.630;2023-05-10T10:37:17;20.40;99.90
16229;DHT22;8222;51.462;12.630;2023-05-10T10:39:43;20.50;99.90
16229;DHT22;8222;51.462;12.630;2023-05-10T10:42:09;20.50;99.90
16229;DHT22;8222;51.462;12.630;2023-05-10T10:44:37;20.70;99.90
16229;DHT22;8222;51.462;12.630;2023-05-10T10:52:26;20.70;99.90
16229;DHT22;8222;51.462;12.630;2023-05-10T10:55:03;20.90;99.90
16229;DHT22;8222;51.462;12.630;2023-05-10T10:57:51;20.90;99.90
16229;DHT22;8222;51.462;12.630;2023-05-10T11:00:28;20.80;99.90
16229;DHT22;8222;51.462;12.630;2023-05-10T11:05:42;20.70;99.90
16229;DHT22;8222;51.462;12.630;2023-05-10T11:15:58;20.60;99.90
16229;DHT22;8222;51.462;12.630;2023-05-10T11:18:29;20.60;99.90
16229;DHT22;8222;51.462;12.630;2023-05-10T11:21:02;20.60;99.90
16229;DHT22;8222;51.462;12.630;2023-05-10T11:23:52;20.50;99.90
16229;DHT22;8222;51.462;12.630;2023-05-10T11:26:21;20.40;99.90
16229;DHT22;8222;51.462;12.630;2023-05-10T11:28:54;20.60;99.90
16229;DHT22;8222;51.462;12.630;2023-05-10T11:31:21;20.60;99.90
16229;DHT22;8222;51.462;12.630;2023-05-10T11:33:54;20.70;99.90
16229;DHT22;8222;51.462;12.630;2023-05-10T11:36:23;20.50;99.90
16229;DHT22;8222;51.462;12.630;2023-05-10T11:38:49;20.30;99.90
16229;DHT22;8222;51.462;12.630;2023-05-10T11:41:21;20.30;99.90
16229;DHT22;8222;51.462;12.630;2023-05-10T11:43:49;20.30;99.90
16229;DHT22;8222;51.462;12.630;2023-05-10T11:46:22;20.30;99.90
16229;DHT22;8222;51.462;12.630;2023-05-10T11:48:54;20.60;99.90
16229;DHT22;8222;51.462;12.630;2023-05-10T11:51:21;20.50;99.90
16229;DHT22;8222;51.462;12.630;2023-05-10T11:53:50;20.60;99.90
16229;DHT22;8222;51.462;12.630;2023-05-10T11:56:16;20.70;99.90
16229;DHT22;8222;51.462;12.630;2023-05-10T11:58:42;20.90;99.90
16229;DHT22;8222;51.462;12.630;2023-05-10T12:01:13;20.90;99.90
16229;DHT22;8222;51.462;12.630;2023-05-10T12:03:40;20.80;99.90
16229;DHT22;8222;51.462;12.630;2023-05-10T12:06:07;20.80;99.90
16229;DHT22;8222;51.462;12.630;2023-05-10T12:08:32;21.00;99.90
16229;DHT22;8222;51.462;12.630;2023-05-10T12:11:08;21.10;99.90
16229;DHT22;8222;51.462;12.630;2023-05-10T12:13:39;21.10;99.90
16229;DHT22;8222;51.462;12.630;2023-05-10T12:16:20;21.30;99.90
16229;DHT22;8222;51.462;12.630;2023-05-10T12:18:49;21.30;99.90
16229;DHT22;8222;51.462;12.630;2023-05-10T12:21:16;21.10;99.90
16229;DHT22;8222;51.462;12.630;2023-05-10T12:23:42;21.20;99.90
16229;DHT22;8222;51.462;12.630;2023-05-10T12:26:10;21.10;99.90
16229;DHT22;8222;51.462;12.630;2023-05-10T12:28:41;21.40;99.90
16229;DHT22;8222;51.462;12.630;2023-05-10T12:31:07;21.40;99.90
16229;DHT22;8222;51.462;12.630;2023-05-10T12:33:43;21.30;99.90
16229;DHT22;8222;51.462;12.630;2023-05-10T12:36:16;21.40;99.90
16229;DHT22;8222;51.462;12.630;2023-05-10T12:38:43;21.70;99.90
16229;DHT22;8222;51.462;12.630;2023-05-10T12:41:18;22.20;99.90
16229;DHT22;8222;51.462;12.630;2023-05-10T12:43:46;22.10;99.90
16229;DHT22;8222;51.462;12.630;2023-05-10T12:49:04;22.30;99.90
16229;DHT22;8222;51.462;12.630;2023-05-10T12:51:32;22.20;99.90
16229;DHT22;8222;51.462;12.630;2023-05-10T12:54:01;22.10;99.90
16229;DHT22;8222;51.462;12.630;2023-05-10T12:56:32;21.90;99.90
16229;DHT22;8222;51.462;12.630;2023-05-10T12:58:58;21.90;99.90
16229;DHT22;8222;51.462;12.630;2023-05-10T13:01:26;21.50;99.90
16229;DHT22;8222;51.462;12.630;2023-05-10T13:03:54;21.10;99.90
16229;DHT22;8222;51.462;12.630;2023-05-10T13:06:22;21.00;99.90
16229;DHT22;8222;51.462;12.630;2023-05-10T13:08:48;20.90;99.90
16229;DHT22;8222;51.462;12.630;2023-05-10T13:11:14;20.80;99.90
16229;DHT22;8222;51.462;12.630;2023-05-10T13:13:45;20.90;99.90
16229;DHT22;8222;51.462;12.630;2023-05-10T13:16:10;20.70;99.90
16229;DHT22;8222;51.462;12.630;2023-05-10T13:18:40;20.50;99.90
16229;DHT22;8222;51.462;12.630;2023-05-10T13:21:06;20.40;99.90
16229;DHT22;8222;51.462;12.630;2023-05-10T13:23:33;20.20;99.90
16229;DHT22;8222;51.462;12.630;2023-05-10T13:25:59;19.90;99.90
16229;DHT22;8222;51.462;12.630;2023-05-10T13:28:24;19.90;99.90
16229;DHT22;8222;51.462;12.630;2023-05-10T13:30:51;19.80;99.90
16229;DHT22;8222;51.462;12.630;2023-05-10T13:33:17;19.80;99.90
16229;DHT22;8222;51.462;12.630;2023-05-10T13:35:45;19.70;99.90
16229;DHT22;8222;51.462;12.630;2023-05-10T13:38:12;19.60;99.90
16229;DHT22;8222;51.462;12.630;2023-05-10T13:40:40;19.50;99.90
16229;DHT22;8222;51.462;12.630;2023-05-10T13:43:06;19.50;99.90
16229;DHT22;8222;51.462;12.630;2023-05-10T13:45:34;19.60;99.90
16229;DHT22;8222;51.462;12.630;2023-05-10T13:47:59;19.50;99.90
16229;DHT22;8222;51.462;12.630;2023-05-10T13:50:27;19.30;99.90
16229;DHT22;8222;51.462;12.630;2023-05-10T13:52:53;19.30;99.90
16229;DHT22;8222;51.462;12.630;2023-05-10T13:55:19;19.20;99.90
16229;DHT22;8222;51.462;12.630;2023-05-10T13:57:47;19.20;99.90
16229;DHT22;8222;51.462;12.630;2023-05-10T14:00:14;19.30;99.90
16229;DHT22;8222;51.462;12.630;2023-05-10T14:02:42;19.20;99.90
16229;DHT22;8222;51.462;12.630;2023-05-10T14:05:08;19.20;99.90
16229;DHT22;8222;51.462;12.630;2023-05-10T14:07:33;19.30;99.90
16229;DHT22;8222;51.462;12.630;2023-05-10T14:10:00;19.30;99.90
16229;DHT22;8222;51.462;12.630;2023-05-10T14:12:27;19.40;99.90
16229;DHT22;8222;51.462;12.630;2023-05-10T14:14:53;19.40;99.90
16229;DHT22;8222;51.462;12.630;2023-05-10T14:17:19;19.40;99.90
16229;DHT22;8222;51.462;12.630;2023-05-10T14:19:44;19.00;99.90
16229;DHT22;8222;51.462;12.630;2023-05-10T14:22:10;19.40;99.90
16229;DHT22;8222;51.462;12.630;2023-05-10T14:24:38;19.50;99.90
16229;DHT22;8222;51.462;12.630;2023-05-10T14:27:04;19.50;99.90
16229;DHT22;8222;51.462;12.630;2023-05-10T14:29:32;19.60;99.90
16229;DHT22;8222;51.462;12.630;2023-05-10T14:32:00;19.60;99.90
16229;DHT22;8222;51.462;12.630;2023-05-10T14:34:28;19.70;99.90
16229;DHT22;8222;51.462;12.630;2023-05-10T14:36:54;20.10;99.90
16229;DHT22;8222;51.462;12.630;2023-05-10T14:39:20;20.10;99.90
16229;DHT22;8222;51.462;12.630;2023-05-10T14:41:46;20.30;99.90
16229;DHT22;8222;51.462;12.630;2023-05-10T14:44:12;20.30;99.90
16229;DHT22;8222;51.462;12.630;2023-05-10T14:46:38;20.20;99.90
16229;DHT22;8222;51.462;12.630;2023-05-10T14:49:05;20.20;99.90
16229;DHT22;8222;51.462;12.630;2023-05-10T14:51:30;20.20;99.90
16229;DHT22;8222;51.462;12.630;2023-05-10T14:53:57;20.30;99.90
16229;DHT22;8222;51.462;12.630;2023-05-10T14:56:25;20.20;99.90
16229;DHT22;8222;51.462;12.630;2023-05-10T14:58:51;20.30;99.90
16229;DHT22;8222;51.462;12.630;2023-05-10T15:01:17;20.30;99.90
16229;DHT22;8222;51.462;12.630;2023-05-10T15:03:45;20.10;99.90
16229;DHT22;8222;51.462;12.630;2023-05-10T15:06:11;20.10;99.90
16229;DHT22;8222;51.462;12.630;2023-05-10T15:08:39;20.20;99.90
16229;DHT22;8222;51.462;12.630;2023-05-10T15:11:05;20.30;99.90
16229;DHT22;8222;51.462;12.630;2023-05-10T15:13:31;20.20;99.90
16229;DHT22;8222;51.462;12.630;2023-05-10T15:15:58;20.00;99.90
16229;DHT22;8222;51.462;12.630;2023-05-10T15:18:23;20.00;99.90
16229;DHT22;8222;51.462;12.630;2023-05-10T15:20:51;20.10;99.90
16229;DHT22;8222;51.462;12.630;2023-05-10T15:23:17;20.00;99.90
16229;DHT22;8222;51.462;12.630;2023-05-10T15:25:43;19.90;99.90
16229;DHT22;8222;51.462;12.630;2023-05-10T15:28:11;19.80;99.90
16229;DHT22;8222;51.462;12.630;2023-05-10T15:30:36;19.80;99.90
16229;DHT22;8222;51.462;12.630;2023-05-10T15:33:05;19.80;99.90
16229;DHT22;8222;51.462;12.630;2023-05-10T15:35:33;19.70;99.90
16229;DHT22;8222;51.462;12.630;2023-05-10T15:38:01;19.60;99.90
16229;DHT22;8222;51.462;12.630;2023-05-10T15:40:26;19.70;99.90
16229;DHT22;8222;51.462;12.630;2023-05-10T15:42:54;19.80;99.90
16229;DHT22;8222;51.462;12.630;2023-05-10T15:45:20;19.70;99.90
16229;DHT22;8222;51.462;12.630;2023-05-10T15:47:48;19.80;99.90
16229;DHT22;8222;51.462;12.630;2023-05-10T15:50:16;19.90;99.90
16229;DHT22;8222;51.462;12.630;2023-05-10T15:52:42;19.80;99.90
16229;DHT22;8222;51.462;12.630;2023-05-10T15:55:08;19.70;99.90
16229;DHT22;8222;51.462;12.630;2023-05-10T15:57:38;19.60;99.90
16229;DHT22;8222;51.462;12.630;2023-05-10T16:00:06;19.70;99.90
16229;DHT22;8222;51.462;12.630;2023-05-10T16:02:32;19.80;99.90
16229;DHT22;8222;51.462;12.630;2023-05-10T16:05:03;19.90;99.90
16229;DHT22;8222;51.462;12.630;2023-05-10T16:07:31;19.90;99.90
16229;DHT22;8222;51.462;12.630;2023-05-10T16:09:57;20.00;99.90
16229;DHT22;8222;51.462;12.630;2023-05-10T16:12:23;19.80;99.90
16229;DHT22;8222;51.462;12.630;2023-05-10T16:14:51;19.80;99.90
16229;DHT22;8222;51.462;12.630;2023-05-10T16:17:16;19.60;99.90
16229;DHT22;8222;51.462;12.630;2023-05-10T16:19:47;19.50;99.90
16229;DHT22;8222;51.462;12.630;2023-05-10T16:22:13;19.40;99.90
16229;DHT22;8222;51.462;12.630;2023-05-10T16:24:39;19.30;99.90
16229;DHT22;8222;51.462;12.630;2023-05-10T16:27:09;19.30;99.90